Time;durP1;ratioP1;P1;durP2;ratioP2;P2;SDS_P1;SDS_P2;PMS_P1;PMS_P2;Temp;Humidity;BMP_temperature;BMP_pressure;BME280_temperature;BME280_humidity;BME280_pressure;Samples;Min_cycle;Max_cycle;Signal;HPM_P1;HPM_P2
2021/09/26 00:01:08;;;;;;;7.10;5.33;;;19.60;99.90;;;;;;5055034;28;20698;-71
2021/09/26 00:03:34;;;;;;;6.03;5.43;;;19.60;99.90;;;;;;5054487;28;20219;-71
2021/09/26 00:06:00;;;;;;;7.20;5.60;;;19.50;99.90;;;;;;5037623;28;20240;-72
2021/09/26 00:08:25;;;;;;;7.97;6.07;;;19.50;99.90;;;;;;5038151;28;20229;-71
2021/09/26 00:10:51;;;;;;;7.30;6.33;;;19.50;99.90;;;;;;5054467;28;20247;-72
2021/09/26 00:13:17;;;;;;;6.90;5.83;;;19.50;99.90;;;;;;5053877;28;20302;-71
2021/09/26 00:15:43;;;;;;;6.60;5.90;;;19.40;99.90;;;;;;5053743;28;20302;-71
2021/09/26 00:18:08;;;;;;;9.03;5.70;;;19.40;99.90;;;;;;5038025;28;20895;-72
2021/09/26 00:20:34;;;;;;;7.83;5.67;;;19.40;99.90;;;;;;5034967;28;20221;-72
2021/09/26 00:23:00;;;;;;;7.83;5.70;;;19.40;99.90;;;;;;5031256;28;20226;-71
2021/09/26 00:25:25;;;;;;;7.60;5.57;;;19.40;99.90;;;;;;5035075;28;20215;-72
2021/09/26 00:27:51;;;;;;;5.97;5.47;;;19.30;99.90;;;;;;5033962;28;20223;-71
2021/09/26 00:30:17;;;;;;;8.07;6.10;;;19.30;99.90;;;;;;5062749;28;20283;-71
2021/09/26 00:32:45;;;;;;;7.50;6.30;;;19.30;99.90;;;;;;5055678;28;20231;-72
2021/09/26 00:35:11;;;;;;;6.13;5.53;;;19.30;99.90;;;;;;5035759;28;20482;-70
2021/09/26 00:37:38;;;;;;;7.33;6.53;;;19.20;99.90;;;;;;5037044;28;20517;-72
2021/09/26 00:40:05;;;;;;;6.37;5.67;;;19.20;99.90;;;;;;5054335;28;20540;-72
2021/09/26 00:42:32;;;;;;;7.93;5.90;;;19.20;99.90;;;;;;5054294;28;20972;-72
2021/09/26 00:44:58;;;;;;;7.90;6.37;;;19.20;99.90;;;;;;5070507;28;20446;-72
2021/09/26 00:47:25;;;;;;;6.40;5.40;;;19.10;99.90;;;;;;5070760;28;20476;-72
2021/09/26 00:49:52;;;;;;;7.47;5.63;;;19.10;99.90;;;;;;5065172;28;20219;-71
2021/09/26 00:52:19;;;;;;;6.90;6.20;;;19.10;99.90;;;;;;5061836;28;20867;-71
2021/09/26 00:54:45;;;;;;;9.30;6.43;;;19.00;99.90;;;;;;5053472;28;20477;-71
2021/09/26 00:57:11;;;;;;;6.43;5.47;;;19.00;99.90;;;;;;5053907;28;20446;-71
2021/09/26 00:59:36;;;;;;;7.07;6.30;;;19.00;99.90;;;;;;5024509;28;20466;-72
2021/09/26 01:02:03;;;;;;;7.10;5.90;;;19.00;99.90;;;;;;5017383;28;20242;-72
2021/09/26 01:04:29;;;;;;;9.80;6.03;;;18.90;99.90;;;;;;5017683;28;20247;-71
2021/09/26 01:07:30;;;;;;;6.60;5.40;;;18.90;99.90;;;;;;5036821;28;20461;-72
2021/09/26 01:10:02;;;;;;;6.47;5.87;;;18.90;99.90;;;;;;4949220;28;20447;-72
2021/09/26 01:12:54;;;;;;;8.53;6.00;;;18.70;99.90;;;;;;5017531;28;20453;-71
2021/09/26 01:15:44;;;;;;;7.13;5.93;;;18.70;99.90;;;;;;5052908;28;20461;-72
2021/09/26 01:18:47;;;;;;;8.80;6.37;;;18.70;99.90;;;;;;5047830;28;20442;-71
2021/09/26 01:21:22;;;;;;;6.47;5.87;;;18.70;99.90;;;;;;5002294;28;20462;-72
2021/09/26 01:24:11;;;;;;;8.30;5.90;;;18.70;99.90;;;;;;5062283;28;20460;-72
2021/09/26 01:26:51;;;;;;;8.97;5.77;;;18.70;99.90;;;;;;5045105;28;20465;-72
2021/09/26 01:29:29;;;;;;;7.73;6.27;;;18.70;99.90;;;;;;5036199;28;20484;-72
2021/09/26 01:31:59;;;;;;;7.20;6.40;;;18.50;99.90;;;;;;5032642;28;20992;-71
2021/09/26 01:34:55;;;;;;;5.97;5.37;;;18.50;99.90;;;;;;5069585;28;20564;-71
2021/09/26 01:37:26;;;;;;;6.90;5.80;;;18.50;99.90;;;;;;5033034;28;20446;-71
2021/09/26 01:39:53;;;;;;;8.33;6.50;;;18.50;99.90;;;;;;5050733;28;20480;-71
2021/09/26 01:42:29;;;;;;;10.17;6.07;;;18.50;99.90;;;;;;5043967;28;20995;-71
2021/09/26 01:45:30;;;;;;;5.90;5.07;;;18.50;99.90;;;;;;5059058;28;20453;-71
2021/09/26 01:48:14;;;;;;;6.70;6.00;;;18.50;99.90;;;;;;4954991;28;20454;-71
2021/09/26 01:50:41;;;;;;;7.63;6.20;;;18.50;99.90;;;;;;5022258;28;20454;-71
2021/09/26 01:53:09;;;;;;;6.33;5.70;;;18.50;99.90;;;;;;5049460;28;20426;-71
2021/09/26 01:55:36;;;;;;;7.73;6.40;;;18.50;99.90;;;;;;5034219;28;20442;-71
2021/09/26 01:58:02;;;;;;;10.33;6.10;;;18.40;99.90;;;;;;5052584;28;20436;-72
2021/09/26 02:00:28;;;;;;;6.63;5.93;;;18.30;99.90;;;;;;5032166;28;20470;-70
2021/09/26 02:02:55;;;;;;;7.40;6.63;;;18.30;99.90;;;;;;5052214;28;20449;-71
2021/09/26 02:05:21;;;;;;;8.03;6.37;;;18.30;99.90;;;;;;5017658;28;20462;-72
2021/09/26 02:07:49;;;;;;;8.13;6.70;;;18.30;99.90;;;;;;5046070;28;20468;-71
2021/09/26 02:10:19;;;;;;;8.83;6.73;;;18.30;99.90;;;;;;5052471;28;20446;-71
2021/09/26 02:12:45;;;;;;;7.57;6.43;;;18.30;99.90;;;;;;5051378;28;20536;-71
2021/09/26 02:15:15;;;;;;;7.10;6.40;;;18.30;99.90;;;;;;5052052;28;20528;-71
2021/09/26 02:17:43;;;;;;;6.63;5.90;;;18.20;99.90;;;;;;5035482;28;20247;-71
2021/09/26 02:20:10;;;;;;;9.23;6.67;;;18.20;99.90;;;;;;5036156;28;20554;-72
2021/09/26 02:22:37;;;;;;;8.60;7.07;;;18.20;99.90;;;;;;5051635;28;20549;-71
2021/09/26 02:25:07;;;;;;;7.40;6.60;;;18.10;99.90;;;;;;5053689;28;20589;-71
2021/09/26 02:27:35;;;;;;;7.57;6.43;;;18.20;99.90;;;;;;5016252;28;20488;-71
2021/09/26 02:30:02;;;;;;;7.00;6.30;;;18.20;99.90;;;;;;5039396;28;20439;-71
2021/09/26 02:32:28;;;;;;;8.33;7.00;;;18.20;99.90;;;;;;5035192;28;20484;-71
2021/09/26 02:34:53;;;;;;;9.00;6.43;;;18.10;99.90;;;;;;5035254;28;20458;-71
2021/09/26 02:37:19;;;;;;;9.23;6.20;;;18.10;99.90;;;;;;5035675;28;20211;-71
2021/09/26 02:39:46;;;;;;;8.33;6.10;;;18.10;99.90;;;;;;5031332;28;20262;-68
2021/09/26 02:42:33;;;;;;;9.17;7.63;;;18.10;99.90;;;;;;5032767;28;20234;-71
2021/09/26 02:45:04;;;;;;;7.73;6.77;;;18.10;99.90;;;;;;5035351;28;20525;-71
2021/09/26 02:47:36;;;;;;;7.87;7.03;;;18.00;99.90;;;;;;5051863;28;20472;-71
2021/09/26 02:50:02;;;;;;;7.10;6.40;;;18.00;99.90;;;;;;5028088;28;20454;-71
2021/09/26 02:52:28;;;;;;;8.27;6.17;;;18.00;99.90;;;;;;5034652;28;20532;-71
2021/09/26 02:54:54;;;;;;;8.40;6.40;;;18.00;99.90;;;;;;5062087;28;20454;-71
2021/09/26 02:57:22;;;;;;;7.80;7.10;;;18.00;99.90;;;;;;5066015;28;20456;-71
2021/09/26 02:59:49;;;;;;;10.37;7.33;;;17.90;99.90;;;;;;5042845;28;20480;-71
2021/09/26 03:02:15;;;;;;;8.13;6.93;;;17.80;99.90;;;;;;5049375;28;20984;-71
2021/09/26 03:04:45;;;;;;;8.87;7.10;;;17.70;99.90;;;;;;5051199;28;20837;-70
2021/09/26 03:07:14;;;;;;;8.37;6.60;;;17.80;99.90;;;;;;5048972;28;20450;-71
2021/09/26 03:09:40;;;;;;;8.13;7.33;;;17.80;99.90;;;;;;5067349;28;20552;-71
2021/09/26 03:12:14;;;;;;;10.00;7.77;;;17.80;99.90;;;;;;5034461;28;20457;-71
2021/09/26 03:14:40;;;;;;;9.53;7.63;;;17.80;99.90;;;;;;5023409;28;20454;-70
2021/09/26 03:17:06;;;;;;;8.23;7.10;;;17.70;99.90;;;;;;5031864;28;20461;-72
2021/09/26 03:19:33;;;;;;;11.80;7.43;;;17.70;99.90;;;;;;5066192;28;20273;-71
2021/09/26 03:22:03;;;;;;;8.67;7.17;;;17.70;99.90;;;;;;5054470;28;20207;-71
2021/09/26 03:24:28;;;;;;;10.40;7.40;;;17.60;99.90;;;;;;5068313;28;20564;-71
2021/09/26 03:26:55;;;;;;;8.80;6.87;;;17.50;99.90;;;;;;5047425;28;20544;-72
2021/09/26 03:29:21;;;;;;;8.87;6.57;;;17.50;99.90;;;;;;5024712;28;20341;-71
2021/09/26 03:31:47;;;;;;;8.87;7.20;;;17.50;99.90;;;;;;5034066;28;20992;-71
2021/09/26 03:34:12;;;;;;;8.17;6.67;;;17.50;99.90;;;;;;5039828;28;20224;-71
2021/09/26 03:36:38;;;;;;;10.30;6.83;;;17.50;99.90;;;;;;5054978;28;20287;-71
2021/09/26 03:39:04;;;;;;;8.57;7.20;;;17.50;99.90;;;;;;5055281;28;20218;-72
2021/09/26 03:41:30;;;;;;;9.93;7.03;;;17.50;99.90;;;;;;5035786;28;20226;-71
2021/09/26 03:43:55;;;;;;;8.47;7.23;;;17.50;99.90;;;;;;5051014;28;20228;-72
2021/09/26 03:46:21;;;;;;;8.00;7.20;;;17.40;99.90;;;;;;5051773;28;20257;-72
2021/09/26 03:48:47;;;;;;;8.93;6.20;;;17.40;99.90;;;;;;5033782;28;20203;-70
2021/09/26 03:51:13;;;;;;;12.87;8.00;;;17.40;99.90;;;;;;5049262;28;20219;-71
2021/09/26 03:53:39;;;;;;;12.83;8.20;;;17.30;99.90;;;;;;5034090;28;20446;-71
2021/09/26 03:56:05;;;;;;;11.10;7.20;;;17.20;99.90;;;;;;5051161;28;20479;-71
2021/09/26 03:58:31;;;;;;;10.07;8.00;;;17.20;99.90;;;;;;5035890;28;20238;-71
2021/09/26 04:00:57;;;;;;;7.40;6.30;;;17.20;99.90;;;;;;5051401;28;20988;-71
2021/09/26 04:03:23;;;;;;;8.70;7.20;;;17.20;99.90;;;;;;5017547;28;20447;-71
2021/09/26 04:05:49;;;;;;;9.53;7.47;;;17.20;99.90;;;;;;5034262;28;20758;-71
2021/09/26 04:08:15;;;;;;;7.77;6.90;;;17.20;99.90;;;;;;5050606;28;20219;-71
2021/09/26 04:10:41;;;;;;;10.70;7.13;;;17.20;99.90;;;;;;5054026;28;20218;-71
2021/09/26 04:13:06;;;;;;;7.40;6.70;;;17.20;99.90;;;;;;5054659;28;20449;-71
2021/09/26 04:15:32;;;;;;;8.87;7.43;;;17.10;99.90;;;;;;5038126;28;20261;-72
2021/09/26 04:17:58;;;;;;;9.97;7.20;;;17.10;99.90;;;;;;5074986;28;20219;-71
2021/09/26 04:20:24;;;;;;;8.30;7.37;;;17.10;99.90;;;;;;5038227;28;20222;-72
2021/09/26 04:22:49;;;;;;;9.33;7.47;;;17.10;99.90;;;;;;5053633;28;20695;-71
2021/09/26 04:25:15;;;;;;;9.90;7.37;;;17.10;99.90;;;;;;5054912;28;20315;-71
2021/09/26 04:27:41;;;;;;;9.13;7.90;;;17.10;99.90;;;;;;5036460;28;20597;-71
2021/09/26 04:30:07;;;;;;;10.73;7.70;;;17.00;99.90;;;;;;5054966;28;20318;-71
2021/09/26 04:32:34;;;;;;;8.87;7.33;;;17.00;99.90;;;;;;5036940;28;20710;-71
2021/09/26 04:35:00;;;;;;;8.10;7.30;;;17.00;99.90;;;;;;5065385;28;20464;-71
2021/09/26 04:37:26;;;;;;;10.67;8.43;;;17.00;99.90;;;;;;5037861;28;20464;-71
2021/09/26 04:39:51;;;;;;;13.23;8.73;;;17.00;99.90;;;;;;5033891;28;20469;-71
2021/09/26 04:42:17;;;;;;;10.00;7.03;;;17.00;99.90;;;;;;5040587;28;20250;-71
2021/09/26 04:44:43;;;;;;;10.57;9.33;;;16.90;99.90;;;;;;5034118;28;20215;-71
2021/09/26 04:47:08;;;;;;;16.33;8.60;;;16.90;99.90;;;;;;5053669;28;20666;-71
2021/09/26 04:49:34;;;;;;;9.20;7.50;;;16.80;99.90;;;;;;5023201;28;20294;-71
2021/09/26 04:52:01;;;;;;;8.60;7.80;;;16.80;99.90;;;;;;5045800;28;20228;-71
2021/09/26 04:54:27;;;;;;;10.37;8.43;;;16.80;99.90;;;;;;5024262;28;20219;-71
2021/09/26 04:56:53;;;;;;;10.10;8.33;;;16.80;99.90;;;;;;5028830;28;20817;-71
2021/09/26 04:59:21;;;;;;;10.67;8.50;;;16.80;99.90;;;;;;5034361;28;20232;-72
2021/09/26 05:01:47;;;;;;;10.17;7.80;;;16.80;99.90;;;;;;5052736;28;20215;-72
2021/09/26 05:04:13;;;;;;;10.40;8.43;;;16.80;99.90;;;;;;5037447;28;20450;-71
2021/09/26 05:06:38;;;;;;;10.50;8.70;;;16.80;99.90;;;;;;5069573;28;20222;-71
2021/09/26 05:09:04;;;;;;;9.70;8.20;;;16.80;99.90;;;;;;5045980;28;20267;-71
2021/09/26 05:11:30;;;;;;;13.60;8.00;;;16.80;99.90;;;;;;5050313;28;20211;-71
2021/09/26 05:13:56;;;;;;;9.30;6.73;;;16.80;99.90;;;;;;5052958;28;20234;-71
2021/09/26 05:16:22;;;;;;;10.23;7.90;;;16.70;99.90;;;;;;5034033;28;20235;-71
2021/09/26 05:18:47;;;;;;;10.10;7.63;;;16.70;99.90;;;;;;5036982;28;20211;-72
2021/09/26 05:21:13;;;;;;;11.00;8.27;;;16.70;99.90;;;;;;5070524;28;20687;-71
2021/09/26 05:23:40;;;;;;;8.97;7.77;;;16.70;99.90;;;;;;5031790;28;20233;-71
2021/09/26 05:26:06;;;;;;;10.13;8.23;;;16.70;99.90;;;;;;5067710;28;20468;-71
2021/09/26 05:28:32;;;;;;;10.73;8.57;;;16.70;99.90;;;;;;5017280;28;20462;-72
2021/09/26 05:30:58;;;;;;;9.77;8.47;;;16.70;99.90;;;;;;5034430;28;20455;-71
2021/09/26 05:33:28;;;;;;;13.33;8.87;;;16.60;99.90;;;;;;5049713;28;20219;-71
2021/09/26 05:35:57;;;;;;;12.30;8.37;;;16.60;99.90;;;;;;5016723;28;20895;-72
2021/09/26 05:38:24;;;;;;;13.50;9.27;;;16.60;99.90;;;;;;5033448;28;20462;-71
2021/09/26 05:40:49;;;;;;;11.23;8.40;;;16.50;99.90;;;;;;5025478;28;21009;-71
2021/09/26 05:43:15;;;;;;;10.47;8.30;;;16.50;99.90;;;;;;5036424;28;20461;-72
2021/09/26 05:45:41;;;;;;;10.83;9.27;;;16.50;99.90;;;;;;5052778;28;20306;-71
2021/09/26 05:48:06;;;;;;;11.70;9.33;;;16.50;99.90;;;;;;5053205;28;20678;-71
2021/09/26 05:50:32;;;;;;;11.70;9.47;;;16.40;99.90;;;;;;5057427;28;20302;-71
2021/09/26 05:52:58;;;;;;;11.20;8.70;;;16.50;99.90;;;;;;5036764;28;20227;-72
2021/09/26 05:55:24;;;;;;;11.83;9.73;;;16.40;99.90;;;;;;5043190;28;20218;-71
2021/09/26 05:57:50;;;;;;;12.00;8.97;;;16.40;99.90;;;;;;5051978;28;20278;-70
2021/09/26 06:00:17;;;;;;;10.87;8.67;;;16.40;99.90;;;;;;5052882;28;20227;-71
2021/09/26 06:02:44;;;;;;;14.03;9.40;;;16.40;99.90;;;;;;5038422;28;20222;-71
2021/09/26 06:05:11;;;;;;;12.00;10.10;;;16.40;99.90;;;;;;5053041;28;20567;-71
2021/09/26 06:07:37;;;;;;;15.97;9.17;;;16.40;99.90;;;;;;5070334;28;20507;-71
2021/09/26 06:10:04;;;;;;;10.10;7.97;;;16.40;99.90;;;;;;5067604;28;20445;-71
2021/09/26 06:12:30;;;;;;;14.10;7.80;;;16.30;99.90;;;;;;5043610;28;20969;-72
2021/09/26 06:14:57;;;;;;;10.87;8.97;;;16.30;99.90;;;;;;5050914;28;23644;-72
2021/09/26 06:17:23;;;;;;;10.73;8.53;;;16.30;99.90;;;;;;5035757;28;20246;-71
2021/09/26 06:19:50;;;;;;;10.90;7.67;;;16.40;99.90;;;;;;5051793;28;20527;-70
2021/09/26 06:22:16;;;;;;;12.10;7.60;;;16.40;99.90;;;;;;5052183;28;20215;-71
2021/09/26 06:24:42;;;;;;;14.33;9.07;;;16.40;99.90;;;;;;5046216;28;20465;-71
2021/09/26 06:27:08;;;;;;;11.70;9.70;;;16.40;99.90;;;;;;5026050;28;20222;-71
2021/09/26 06:29:33;;;;;;;13.33;9.43;;;16.40;99.90;;;;;;5060706;28;20241;-71
2021/09/26 06:31:59;;;;;;;13.97;10.07;;;16.40;99.90;;;;;;5044650;28;20450;-71
2021/09/26 06:34:25;;;;;;;18.53;9.80;;;16.40;99.90;;;;;;5032461;28;20227;-72
2021/09/26 06:36:50;;;;;;;18.53;11.50;;;16.40;99.90;;;;;;5050747;28;20207;-71
2021/09/26 06:39:16;;;;;;;17.37;12.60;;;16.40;99.90;;;;;;5035829;28;20305;-71
2021/09/26 06:41:42;;;;;;;17.83;12.93;;;16.40;99.90;;;;;;5050735;28;20238;-71
2021/09/26 06:44:08;;;;;;;16.53;11.27;;;16.40;99.90;;;;;;5051867;28;20298;-71
2021/09/26 06:46:33;;;;;;;18.60;12.30;;;16.50;99.90;;;;;;5032466;28;20950;-71
2021/09/26 06:48:59;;;;;;;20.53;12.17;;;16.50;99.90;;;;;;5033951;28;20278;-71
2021/09/26 06:51:25;;;;;;;26.90;15.17;;;16.50;99.90;;;;;;5036274;28;20219;-70
2021/09/26 06:53:50;;;;;;;20.60;12.63;;;16.60;99.90;;;;;;5051052;28;20578;-71
2021/09/26 06:56:16;;;;;;;20.67;11.70;;;16.60;99.90;;;;;;5052138;28;20610;-72
2021/09/26 06:58:41;;;;;;;18.67;12.60;;;16.60;99.90;;;;;;5034951;28;20651;-71
2021/09/26 07:01:08;;;;;;;20.80;11.93;;;16.60;99.90;;;;;;5052427;28;20218;-71
2021/09/26 07:03:34;;;;;;;17.20;10.80;;;16.70;99.90;;;;;;5051788;28;20207;-71
2021/09/26 07:05:59;;;;;;;13.87;10.37;;;16.70;99.90;;;;;;5035198;28;20453;-71
2021/09/26 07:08:25;;;;;;;15.60;11.27;;;16.70;99.90;;;;;;5048762;28;20258;-71
2021/09/26 07:10:51;;;;;;;17.40;11.20;;;16.70;99.90;;;;;;5040213;28;20215;-71
2021/09/26 07:13:16;;;;;;;19.57;12.43;;;16.80;99.90;;;;;;5062989;28;20218;-72
2021/09/26 07:15:42;;;;;;;20.30;12.30;;;16.80;99.90;;;;;;5042436;28;20314;-71
2021/09/26 07:18:08;;;;;;;16.93;12.40;;;16.80;99.90;;;;;;5051342;28;20676;-71
2021/09/26 07:20:33;;;;;;;14.30;10.13;;;16.80;99.90;;;;;;5064554;28;20219;-71
2021/09/26 07:23:00;;;;;;;14.80;10.60;;;16.90;99.90;;;;;;5044885;28;20325;-71
2021/09/26 07:25:28;;;;;;;15.83;9.70;;;16.90;99.90;;;;;;5037137;28;20301;-71
2021/09/26 07:27:54;;;;;;;11.97;8.77;;;16.90;99.90;;;;;;5051487;28;20466;-72
2021/09/26 07:30:20;;;;;;;14.50;9.57;;;17.00;99.90;;;;;;5029286;28;20457;-71
2021/09/26 07:32:46;;;;;;;13.13;9.00;;;17.00;99.90;;;;;;5035663;28;20460;-71
2021/09/26 07:35:12;;;;;;;15.03;9.57;;;17.00;99.90;;;;;;5064106;28;20227;-71
2021/09/26 07:37:38;;;;;;;12.60;9.23;;;17.10;99.90;;;;;;5027994;28;20215;-71
2021/09/26 07:40:05;;;;;;;9.77;7.87;;;17.10;99.90;;;;;;5051856;28;21004;-71
2021/09/26 07:42:31;;;;;;;12.70;9.30;;;17.10;99.90;;;;;;5053949;28;20718;-72
2021/09/26 07:45:03;;;;;;;15.60;8.97;;;17.20;99.90;;;;;;5054392;28;20477;-72
2021/09/26 07:47:33;;;;;;;11.43;8.60;;;17.20;99.90;;;;;;5070861;28;20227;-72
2021/09/26 07:49:58;;;;;;;10.13;9.03;;;17.30;99.90;;;;;;5037123;28;20445;-71
2021/09/26 07:52:24;;;;;;;9.73;7.97;;;17.40;99.90;;;;;;5031688;28;20447;-71
2021/09/26 07:54:51;;;;;;;11.70;8.40;;;17.40;99.90;;;;;;5066029;28;20232;-72
2021/09/26 07:57:19;;;;;;;9.07;7.90;;;17.40;99.90;;;;;;5035339;28;20238;-72
2021/09/26 07:59:46;;;;;;;10.57;8.43;;;17.50;99.90;;;;;;5040481;28;20466;-71
2021/09/26 08:02:12;;;;;;;12.83;8.50;;;17.50;99.90;;;;;;5038122;28;20465;-71
2021/09/26 08:04:38;;;;;;;10.87;8.67;;;17.60;99.90;;;;;;5054903;28;20476;-71
2021/09/26 08:07:04;;;;;;;11.50;8.67;;;17.60;99.90;;;;;;5070626;28;20713;-72
2021/09/26 08:09:29;;;;;;;9.70;8.33;;;17.70;99.90;;;;;;5037467;28;20760;-71
2021/09/26 08:11:55;;;;;;;9.80;7.13;;;17.70;99.90;;;;;;5037677;28;20247;-71
2021/09/26 08:14:21;;;;;;;12.27;8.90;;;17.70;99.90;;;;;;5035257;28;20227;-71
2021/09/26 08:16:46;;;;;;;11.67;8.70;;;17.70;99.90;;;;;;5037627;28;20219;-71
2021/09/26 08:19:12;;;;;;;11.90;8.80;;;17.80;99.90;;;;;;5050475;28;20215;-71
2021/09/26 08:21:38;;;;;;;13.23;10.67;;;17.90;99.90;;;;;;5048544;28;20269;-72
2021/09/26 08:24:06;;;;;;;12.07;9.13;;;18.00;99.90;;;;;;5049929;28;20703;-71
2021/09/26 08:26:33;;;;;;;12.00;9.20;;;18.10;99.90;;;;;;5049642;28;20223;-71
2021/09/26 08:28:59;;;;;;;12.67;9.53;;;18.30;99.90;;;;;;5048965;28;20464;-71
2021/09/26 08:31:24;;;;;;;10.87;8.93;;;18.50;99.90;;;;;;5032506;28;20481;-71
2021/09/26 08:33:50;;;;;;;13.70;9.90;;;18.70;99.90;;;;;;5049991;28;20682;-71
2021/09/26 08:36:16;;;;;;;11.77;8.73;;;18.70;99.90;;;;;;5052295;28;20207;-72
2021/09/26 08:38:42;;;;;;;12.67;9.57;;;18.70;99.90;;;;;;5052469;28;20207;-71
2021/09/26 08:41:08;;;;;;;10.20;8.73;;;18.70;99.90;;;;;;5029756;28;21052;-71
2021/09/26 08:43:34;;;;;;;9.47;7.53;;;18.70;99.90;;;;;;5045534;28;20212;-72
2021/09/26 08:46:00;;;;;;;14.33;8.50;;;18.80;99.90;;;;;;5048886;28;20960;-72
2021/09/26 08:48:28;;;;;;;11.97;8.27;;;18.90;99.90;;;;;;5051189;28;20216;-71
2021/09/26 08:50:54;;;;;;;11.23;7.87;;;19.00;99.90;;;;;;5049882;28;20306;-72
2021/09/26 08:53:24;;;;;;;9.60;8.53;;;19.10;99.90;;;;;;5029716;28;20891;-72
2021/09/26 08:55:54;;;;;;;10.10;8.60;;;19.30;99.90;;;;;;5031578;28;20224;-71
2021/09/26 08:58:20;;;;;;;9.87;8.27;;;19.40;99.90;;;;;;5033230;28;20962;-72
2021/09/26 09:00:46;;;;;;;18.20;8.97;;;19.40;99.90;;;;;;5061744;28;20868;-71
2021/09/26 09:03:13;;;;;;;10.60;7.83;;;19.50;99.90;;;;;;5050163;28;20465;-71
2021/09/26 09:05:40;;;;;;;8.53;7.57;;;19.60;99.90;;;;;;5047328;28;20500;-72
2021/09/26 09:08:08;;;;;;;8.60;7.43;;;19.60;99.90;;;;;;5056967;28;20449;-72
2021/09/26 09:10:38;;;;;;;9.50;6.90;;;19.60;99.90;;;;;;5044042;28;20461;-72
2021/09/26 09:13:05;;;;;;;7.73;6.87;;;19.70;99.90;;;;;;5044479;28;20445;-72
2021/09/26 09:15:31;;;;;;;9.53;7.40;;;19.70;99.90;;;;;;5043710;28;20461;-72
2021/09/26 09:18:02;;;;;;;9.27;6.90;;;19.70;99.90;;;;;;5037714;28;20464;-71
2021/09/26 09:20:29;;;;;;;11.43;7.90;;;19.80;99.90;;;;;;5048148;28;20219;-71
2021/09/26 09:23:13;;;;;;;7.80;7.00;;;19.80;99.90;;;;;;5033556;28;20465;-71
2021/09/26 09:25:47;;;;;;;7.53;6.40;;;19.90;99.90;;;;;;5052225;28;20469;-72
2021/09/26 09:28:30;;;;;;;7.63;6.73;;;19.90;99.90;;;;;;5052378;28;20454;-72
2021/09/26 09:31:02;;;;;;;7.60;6.40;;;20.00;99.90;;;;;;5052571;28;20457;-71
2021/09/26 09:33:42;;;;;;;7.70;6.83;;;20.10;99.90;;;;;;5036402;28;20451;-71
2021/09/26 09:36:31;;;;;;;7.70;6.80;;;20.10;99.90;;;;;;5041285;28;20478;-72
2021/09/26 09:38:59;;;;;;;6.50;5.90;;;20.20;99.90;;;;;;5015420;28;20508;-71
2021/09/26 09:41:57;;;;;;;6.80;6.20;;;20.30;99.90;;;;;;5050339;28;20474;-72
2021/09/26 09:44:35;;;;;;;7.50;6.80;;;20.30;99.90;;;;;;5039331;28;21004;-71
2021/09/26 09:47:01;;;;;;;7.30;6.60;;;20.40;99.90;;;;;;5045145;28;20460;-72
2021/09/26 09:49:26;;;;;;;8.00;7.20;;;20.50;99.90;;;;;;5025170;28;20453;-71
2021/09/26 09:51:57;;;;;;;7.17;6.47;;;20.50;99.90;;;;;;5025349;28;20222;-71
2021/09/26 09:54:38;;;;;;;10.10;6.80;;;20.60;99.90;;;;;;5049272;28;20298;-71
2021/09/26 09:57:12;;;;;;;8.63;6.03;;;20.70;99.90;;;;;;5049591;28;20460;-72
2021/09/26 09:59:38;;;;;;;8.67;7.40;;;20.80;99.90;;;;;;5043405;28;20504;-71
2021/09/26 10:02:04;;;;;;;6.90;6.20;;;20.80;99.90;;;;;;5041844;28;20483;-71
2021/09/26 10:04:37;;;;;;;6.77;6.17;;;20.80;99.90;;;;;;5048162;28;20458;-71
2021/09/26 10:07:19;;;;;;;12.40;8.80;;;20.80;99.90;;;;;;5042414;28;20515;-71
2021/09/26 10:09:45;;;;;;;7.57;6.87;;;20.90;99.90;;;;;;5068915;28;20481;-72
2021/09/26 10:12:29;;;;;;;9.63;8.63;;;20.90;99.90;;;;;;5050677;28;20480;-70
2021/09/26 10:15:00;;;;;;;10.40;9.00;;;20.90;99.90;;;;;;5028447;28;20260;-71
2021/09/26 10:17:27;;;;;;;8.53;7.63;;;20.90;99.90;;;;;;5030477;28;20466;-71
2021/09/26 10:19:53;;;;;;;7.37;6.50;;;20.90;99.90;;;;;;5050743;28;20453;-71
2021/09/26 10:22:20;;;;;;;8.30;7.03;;;20.90;99.90;;;;;;5061714;28;21012;-71
2021/09/26 10:24:49;;;;;;;9.60;8.60;;;20.90;99.90;;;;;;5043142;28;20484;-71
2021/09/26 10:27:21;;;;;;;8.27;7.47;;;21.00;99.90;;;;;;5061787;28;20457;-72
2021/09/26 10:29:49;;;;;;;8.90;7.93;;;21.00;99.90;;;;;;5066328;28;20464;-71
2021/09/26 10:32:16;;;;;;;8.13;7.10;;;21.00;99.90;;;;;;5031068;28;20469;-72
2021/09/26 10:34:42;;;;;;;7.97;7.17;;;21.10;99.90;;;;;;5039311;28;20453;-72
2021/09/26 10:37:11;;;;;;;8.50;6.80;;;21.10;99.90;;;;;;5062182;28;20448;-71
2021/09/26 10:39:37;;;;;;;8.70;7.00;;;21.20;99.90;;;;;;5047440;28;20229;-73
2021/09/26 10:42:08;;;;;;;8.47;7.67;;;21.20;99.90;;;;;;5064059;28;20429;-71
2021/09/26 10:44:43;;;;;;;8.20;7.40;;;21.20;99.90;;;;;;5058599;28;20466;-71
2021/09/26 10:47:19;;;;;;;7.50;6.80;;;21.30;99.90;;;;;;5049918;28;20445;-72
2021/09/26 10:49:44;;;;;;;9.87;6.77;;;21.30;99.90;;;;;;5026427;28;20448;-72
2021/09/26 10:52:23;;;;;;;7.20;6.47;;;21.30;99.90;;;;;;5049617;28;20440;-72
2021/09/26 10:54:50;;;;;;;9.90;8.23;;;21.40;99.90;;;;;;5029751;28;20693;-71
2021/09/26 10:57:19;;;;;;;9.73;7.77;;;21.30;99.90;;;;;;5031623;28;20441;-71
2021/09/26 10:59:47;;;;;;;10.37;8.63;;;21.20;99.90;;;;;;5065586;28;20552;-71
2021/09/26 11:02:22;;;;;;;12.53;8.93;;;21.00;99.90;;;;;;5041414;28;20976;-71
2021/09/26 11:04:53;;;;;;;14.17;9.30;;;21.00;99.90;;;;;;5062765;28;20467;-71
2021/09/26 11:07:24;;;;;;;12.17;9.03;;;21.00;99.90;;;;;;5030959;28;20469;-71
2021/09/26 11:09:53;;;;;;;13.57;8.50;;;20.90;99.90;;;;;;5060927;28;20445;-72
2021/09/26 11:12:39;;;;;;;9.90;8.67;;;20.90;99.90;;;;;;5047015;28;20453;-72
2021/09/26 11:15:09;;;;;;;10.43;8.07;;;20.90;99.90;;;;;;5038141;28;20460;-71
2021/09/26 11:17:53;;;;;;;9.00;8.10;;;20.80;99.90;;;;;;5031334;28;20453;-71
2021/09/26 11:20:25;;;;;;;9.67;8.10;;;20.80;99.90;;;;;;5055253;28;20468;-71
2021/09/26 11:23:05;;;;;;;12.20;8.27;;;20.70;99.90;;;;;;5072549;28;20839;-72
2021/09/26 11:25:56;;;;;;;10.50;8.27;;;20.70;99.90;;;;;;5053436;28;20456;-71
2021/09/26 11:28:25;;;;;;;9.60;8.60;;;20.70;99.90;;;;;;5054616;28;20464;-71
2021/09/26 11:30:53;;;;;;;8.87;8.00;;;20.70;99.90;;;;;;5064364;28;20455;-70
2021/09/26 11:33:19;;;;;;;13.10;8.23;;;20.70;99.90;;;;;;5058029;28;20861;-71
2021/09/26 11:35:45;;;;;;;11.80;9.00;;;20.70;99.90;;;;;;5046278;28;20472;-70
2021/09/26 11:38:14;;;;;;;14.63;9.53;;;20.70;99.90;;;;;;5038179;28;20457;-71
2021/09/26 11:40:58;;;;;;;9.83;8.83;;;20.70;99.90;;;;;;5049408;28;20220;-70
2021/09/26 11:43:27;;;;;;;8.90;7.50;;;20.80;99.90;;;;;;5054465;28;20464;-71
2021/09/26 11:45:57;;;;;;;11.30;9.50;;;20.70;99.90;;;;;;5053282;28;20449;-71
2021/09/26 11:48:32;;;;;;;13.50;11.00;;;20.70;99.90;;;;;;5037780;28;20456;-71
2021/09/26 11:51:06;;;;;;;15.20;9.80;;;20.70;99.90;;;;;;5036528;28;20445;-71
2021/09/26 11:53:31;;;;;;;15.03;9.63;;;20.70;99.90;;;;;;5037113;28;20457;-71
2021/09/26 11:55:57;;;;;;;10.30;9.20;;;20.70;99.90;;;;;;5036358;28;20457;-71
2021/09/26 11:58:27;;;;;;;11.03;8.47;;;20.60;99.90;;;;;;5036947;28;20238;-72
2021/09/26 12:00:52;;;;;;;15.77;10.07;;;20.60;99.90;;;;;;5036617;28;20690;-71
2021/09/26 12:03:28;;;;;;;10.70;9.20;;;20.60;99.90;;;;;;5034416;28;20532;-72
2021/09/26 12:05:55;;;;;;;10.27;7.80;;;20.60;99.90;;;;;;5027607;28;20319;-72
2021/09/26 12:08:23;;;;;;;10.13;8.63;;;20.60;99.90;;;;;;5045977;28;20454;-72
2021/09/26 12:10:59;;;;;;;11.07;9.43;;;20.60;99.90;;;;;;5018892;28;20453;-72
2021/09/26 12:13:24;;;;;;;11.50;9.17;;;20.60;99.90;;;;;;5027821;28;20458;-71
2021/09/26 12:15:50;;;;;;;10.97;8.40;;;20.60;99.90;;;;;;5046405;28;20496;-71
2021/09/26 12:18:24;;;;;;;10.57;8.60;;;20.60;99.90;;;;;;5046355;28;20219;-71
2021/09/26 12:21:10;;;;;;;14.17;8.93;;;20.50;99.90;;;;;;5050524;28;20626;-70
2021/09/26 12:24:07;;;;;;;9.80;8.80;;;20.50;99.90;;;;;;5030036;28;20461;-72
2021/09/26 12:26:34;;;;;;;11.43;8.50;;;20.50;99.90;;;;;;5015059;28;20472;-72
2021/09/26 12:29:20;;;;;;;11.63;8.10;;;20.50;99.90;;;;;;5030440;28;20503;-71
2021/09/26 12:31:54;;;;;;;10.50;8.47;;;20.50;99.90;;;;;;5026318;28;21014;-72
2021/09/26 12:34:33;;;;;;;11.17;8.47;;;20.50;99.90;;;;;;5058112;28;20462;-72
2021/09/26 12:37:01;;;;;;;15.27;8.47;;;20.50;99.90;;;;;;5026848;28;20453;-72
2021/09/26 12:39:32;;;;;;;10.50;8.53;;;20.50;99.90;;;;;;5047529;28;20464;-71
2021/09/26 12:41:59;;;;;;;10.97;9.60;;;20.50;99.90;;;;;;5046415;28;20442;-72
2021/09/26 12:44:31;;;;;;;10.20;8.67;;;20.50;99.90;;;;;;5023076;28;20536;-72
2021/09/26 12:47:04;;;;;;;8.77;7.87;;;20.50;99.90;;;;;;5028504;28;20454;-72
2021/09/26 12:49:30;;;;;;;17.37;7.87;;;20.50;99.90;;;;;;5021886;28;20460;-72